Wetterstation Vordersexau
Wetterdaten: Woche 22.04.13 - 28.04.13 (KW17)
Datum Zeit Temp. A. Feuchte A. Luftdruck Regen Wind Richtung Taupunkt Windchill Windben
22.04.2013 00:00 9,1 C 84 % 1015,5 hPa 0,0 l/m 0,0 km/h SO 6,5 C 9,1 C 0,0 km/h
22.04.2013 01:00 8,9 C 84 % 1015,4 hPa 0,0 l/m 0,0 km/h SW 6,3 C 8,9 C 0,0 km/h
22.04.2013 02:00 9,0 C 84 % 1015,2 hPa 0,0 l/m 0,0 km/h S-SO 6,4 C 9,0 C 0,0 km/h
22.04.2013 03:00 8,9 C 84 % 1015,1 hPa 0,0 l/m 0,0 km/h S-SO 6,3 C 8,9 C 0,0 km/h
22.04.2013 04:00 8,7 C 84 % 1014,8 hPa 0,0 l/m 0,0 km/h S-SO 6,2 C 8,7 C 0,0 km/h
22.04.2013 05:00 8,6 C 84 % 1014,9 hPa 0,0 l/m 0,0 km/h S-SW 6,1 C 8,6 C 0,0 km/h
22.04.2013 06:00 8,4 C 83 % 1014,9 hPa 0,0 l/m 0,0 km/h S 5,7 C 8,4 C 0,0 km/h
22.04.2013 07:00 8,5 C 83 % 1015,3 hPa 0,0 l/m 0,0 km/h S-SO 5,8 C 8,5 C 0,0 km/h
22.04.2013 08:00 9,4 C 83 % 1015,5 hPa 0,0 l/m 0,0 km/h SW 6,7 C 9,4 C 0,0 km/h
22.04.2013 09:00 11,0 C 83 % 1015,5 hPa 0,0 l/m 0,0 km/h O 8,2 C 11,0 C 0,0 km/h
22.04.2013 10:00 12,9 C 75 % 1015,5 hPa 0,0 l/m 0,0 km/h O-SO 8,6 C 12,9 C 0,0 km/h
22.04.2013 11:00 15,3 C 66 % 1015,5 hPa 0,0 l/m 0,0 km/h O-SO 9,0 C 15,3 C 0,0 km/h
22.04.2013 12:00 16,3 C 60 % 1015,4 hPa 0,0 l/m 0,0 km/h N 8,5 C 16,3 C 0,0 km/h
22.04.2013 13:00 14,4 C 64 % 1015,2 hPa 0,0 l/m 1,9 km/h NO 7,7 C 14,4 C 1,1 km/h
22.04.2013 14:00 14,5 C 62 % 1015,3 hPa 0,0 l/m 3,9 km/h S-SO 7,3 C 14,5 C 2,2 km/h
22.04.2013 15:00 14,4 C 63 % 1015,2 hPa 0,0 l/m 0,0 km/h S-SW 7,4 C 14,4 C 0,0 km/h
22.04.2013 16:00 13,1 C 68 % 1015,2 hPa 0,0 l/m 19,4 km/h S-SW 7,3 C 7,5 C 10,8 km/h
22.04.2013 17:00 12,9 C 68 % 1015,1 hPa 0,0 l/m 0,6 km/h S-SW 7,1 C 12,9 C 0,4 km/h
22.04.2013 18:00 13,0 C 69 % 1015,4 hPa 0,0 l/m 0,0 km/h S-SW 7,4 C 13,0 C 0,0 km/h
22.04.2013 19:00 12,5 C 70 % 1015,4 hPa 0,0 l/m 3,2 km/h S 7,2 C 12,5 C 1,8 km/h
22.04.2013 20:00 11,1 C 73 % 1016,0 hPa 0,0 l/m 0,0 km/h SO 6,4 C 11,1 C 0,0 km/h
22.04.2013 21:00 10,1 C 78 % 1016,7 hPa 0,0 l/m 0,0 km/h SO 6,4 C 10,1 C 0,0 km/h
22.04.2013 22:00 9,4 C 81 % 1017,4 hPa 0,0 l/m 0,0 km/h O-SO 6,3 C 9,4 C 0,0 km/h
22.04.2013 23:00 9,3 C 82 % 1017,8 hPa 0,0 l/m 0,0 km/h S 6,4 C 9,3 C 0,0 km/h
23.04.2013 00:00 8,9 C 82 % 1017,6 hPa 0,0 l/m 0,0 km/h S-SO 6,0 C 8,9 C 0,0 km/h
23.04.2013 01:00 8,8 C 83 % 1017,9 hPa 0,0 l/m 0,0 km/h S 6,1 C 8,8 C 0,0 km/h
23.04.2013 02:00 8,3 C 83 % 1017,9 hPa 0,0 l/m 0,0 km/h S 5,6 C 8,3 C 0,0 km/h
23.04.2013 03:00 8,1 C 83 % 1017,5 hPa 0,0 l/m 0,0 km/h S-SW 5,4 C 8,1 C 0,0 km/h
23.04.2013 04:00 7,9 C 84 % 1018,0 hPa 0,0 l/m 3,9 km/h S 5,4 C 7,9 C 2,2 km/h
23.04.2013 05:00 7,7 C 84 % 1018,3 hPa 0,0 l/m 11,0 km/h S 5,2 C 4,4 C 6,1 km/h
23.04.2013 06:00 7,9 C 84 % 1018,3 hPa 0,0 l/m 0,0 km/h SO 5,4 C 7,9 C 0,0 km/h
23.04.2013 07:00 8,3 C 84 % 1019,4 hPa 0,0 l/m 0,0 km/h S-SW 5,8 C 8,3 C 0,0 km/h
23.04.2013 08:00 9,8 C 84 % 1020,0 hPa 0,0 l/m 0,0 km/h SW 7,2 C 9,8 C 0,0 km/h
23.04.2013 09:00 12,1 C 80 % 1020,2 hPa 0,0 l/m 11,0 km/h N-NW 8,8 C 9,4 C 6,1 km/h
23.04.2013 10:00 18,3 C 64 % 1020,7 hPa 0,0 l/m 1,3 km/h N 11,4 C 18,3 C 0,7 km/h
23.04.2013 11:00 20,9 C 50 % 1020,9 hPa 0,0 l/m 7,1 km/h W-NW 10,1 C 20,6 C 4,0 km/h
23.04.2013 12:00 21,6 C 42 % 1020,9 hPa 0,0 l/m 4,5 km/h N 8,1 C 21,6 C 2,5 km/h
23.04.2013 13:00 21,8 C 41 % 1020,3 hPa 0,0 l/m 3,9 km/h W-NW 8,0 C 21,8 C 2,2 km/h
23.04.2013 14:00 22,5 C 38 % 1020,4 hPa 0,0 l/m 17,5 km/h N 7,5 C 19,8 C 9,7 km/h
23.04.2013 15:00 24,7 C 34 % 1020,1 hPa 0,0 l/m 25,9 km/h S-SW 7,8 C 21,7 C 14,4 km/h
23.04.2013 16:00 24,1 C 33 % 1019,7 hPa 0,0 l/m 3,9 km/h NW 6,8 C 24,1 C 2,2 km/h
23.04.2013 17:00 25,6 C 30 % 1019,7 hPa 0,0 l/m 7,8 km/h N 6,7 C 25,3 C 4,3 km/h
23.04.2013 18:00 21,3 C 34 % 1019,7 hPa 0,0 l/m 7,8 km/h O-SO 4,8 C 20,8 C 4,3 km/h
23.04.2013 19:00 21,6 C 35 % 1020,0 hPa 0,0 l/m 0,0 km/h S-SW 5,5 C 21,6 C 0,0 km/h
23.04.2013 20:00 14,9 C 54 % 1020,5 hPa 0,0 l/m 0,0 km/h S-SO 5,7 C 14,9 C 0,0 km/h
23.04.2013 21:00 11,3 C 65 % 1021,5 hPa 0,0 l/m 0,0 km/h S-SW 5,0 C 11,3 C 0,0 km/h
23.04.2013 22:00 10,0 C 71 % 1022,0 hPa 0,0 l/m 0,0 km/h SW 5,0 C 10,0 C 0,0 km/h
23.04.2013 23:00 10,1 C 74 % 1022,3 hPa 0,0 l/m 7,8 km/h S-SW 5,7 C 9,1 C 4,3 km/h
24.04.2013 00:00 8,9 C 77 % 1023,1 hPa 0,0 l/m 4,5 km/h S-SO 5,1 C 8,9 C 2,5 km/h
24.04.2013 01:00 8,3 C 78 % 1023,1 hPa 0,0 l/m 0,0 km/h SO 4,7 C 8,3 C 0,0 km/h
24.04.2013 02:00 7,3 C 81 % 1023,3 hPa 0,0 l/m 0,0 km/h S-SO 4,3 C 7,3 C 0,0 km/h
24.04.2013 03:00 7,3 C 82 % 1023,7 hPa 0,0 l/m 0,0 km/h S 4,4 C 7,3 C 0,0 km/h
24.04.2013 04:00 6,7 C 83 % 1023,7 hPa 0,0 l/m 0,0 km/h S-SW 4,0 C 6,7 C 0,0 km/h
24.04.2013 05:00 5,6 C 84 % 1024,0 hPa 0,0 l/m 0,0 km/h SO 3,1 C 5,6 C 0,0 km/h
24.04.2013 06:00 5,3 C 84 % 1024,0 hPa 0,0 l/m 0,0 km/h S-SO 2,8 C 5,3 C 0,0 km/h
24.04.2013 07:00 5,4 C 84 % 1024,5 hPa 0,0 l/m 0,0 km/h SO 2,9 C 5,4 C 0,0 km/h
24.04.2013 08:00 11,3 C 83 % 1024,9 hPa 0,0 l/m 0,0 km/h SW 8,5 C 11,3 C 0,0 km/h
24.04.2013 09:00 18,9 C 56 % 1025,1 hPa 0,0 l/m 1,3 km/h NO 9,9 C 18,9 C 0,7 km/h
24.04.2013 10:00 21,2 C 46 % 1025,2 hPa 0,0 l/m 0,0 km/h W 9,1 C 21,2 C 0,0 km/h
24.04.2013 11:00 21,6 C 45 % 1025,2 hPa 0,0 l/m 6,5 km/h N 9,2 C 21,6 C 3,6 km/h
24.04.2013 12:00 23,5 C 42 % 1024,9 hPa 0,0 l/m 0,0 km/h NW 9,8 C 23,5 C 0,0 km/h
24.04.2013 13:00 23,6 C 41 % 1024,5 hPa 0,0 l/m 2,6 km/h N-NO 9,6 C 23,6 C 1,4 km/h
24.04.2013 14:00 24,6 C 39 % 1024,0 hPa 0,0 l/m 9,1 km/h N-NW 9,7 C 23,9 C 5,0 km/h
24.04.2013 15:00 27,6 C 33 % 1023,3 hPa 0,0 l/m 11,0 km/h NO 9,9 C 26,9 C 6,1 km/h
24.04.2013 16:00 28,9 C 27 % 1022,9 hPa 0,0 l/m 0,6 km/h N 8,0 C 28,9 C 0,4 km/h
24.04.2013 17:00 28,8 C 23 % 1022,4 hPa 0,0 l/m 16,2 km/h N-NO 5,6 C 27,8 C 9,0 km/h
24.04.2013 18:00 28,7 C 25 % 1022,1 hPa 0,0 l/m 1,3 km/h O-NO 6,7 C 28,7 C 0,7 km/h
24.04.2013 19:00 27,6 C 27 % 1022,0 hPa 0,0 l/m 0,0 km/h O-SO 6,9 C 27,6 C 0,0 km/h
24.04.2013 20:00 18,4 C 46 % 1022,2 hPa 0,0 l/m 0,0 km/h SO 6,6 C 18,4 C 0,0 km/h
24.04.2013 21:00 14,2 C 57 % 1023,0 hPa 0,0 l/m 0,0 km/h S-SO 5,8 C 14,2 C 0,0 km/h
24.04.2013 22:00 12,9 C 63 % 1023,6 hPa 0,0 l/m 0,0 km/h S-SW 6,0 C 12,9 C 0,0 km/h
24.04.2013 23:00 11,7 C 69 % 1023,6 hPa 0,0 l/m 1,3 km/h S-SO 6,2 C 11,7 C 0,7 km/h
25.04.2013 00:00 10,9 C 72 % 1023,6 hPa 0,0 l/m 0,0 km/h S-SO 6,1 C 10,9 C 0,0 km/h
25.04.2013 01:00 9,9 C 74 % 1023,7 hPa 0,0 l/m 0,0 km/h SO 5,5 C 9,9 C 0,0 km/h
25.04.2013 02:00 9,2 C 77 % 1023,6 hPa 0,0 l/m 0,0 km/h S-SW 5,4 C 9,2 C 0,0 km/h
25.04.2013 03:00 8,6 C 79 % 1023,5 hPa 0,0 l/m 0,0 km/h S-SW 5,2 C 8,6 C 0,0 km/h
25.04.2013 04:00 8,3 C 80 % 1023,4 hPa 0,0 l/m 0,0 km/h SO 5,1 C 8,3 C 0,0 km/h
25.04.2013 05:00 8,1 C 81 % 1023,3 hPa 0,0 l/m 0,0 km/h S-SW 5,0 C 8,1 C 0,0 km/h
25.04.2013 06:00 7,3 C 82 % 1023,5 hPa 0,0 l/m 0,0 km/h S 4,4 C 7,3 C 0,0 km/h
25.04.2013 07:00 8,1 C 82 % 1023,7 hPa 0,0 l/m 0,0 km/h S 5,2 C 8,1 C 0,0 km/h
25.04.2013 08:00 14,9 C 70 % 1023,7 hPa 0,0 l/m 0,0 km/h SO 9,5 C 14,9 C 0,0 km/h
25.04.2013 09:00 20,8 C 56 % 1023,8 hPa 0,0 l/m 0,0 km/h O-NO 11,7 C 20,8 C 0,0 km/h
25.04.2013 10:00 24,9 C 41 % 1023,5 hPa 0,0 l/m 0,0 km/h N 10,7 C 24,9 C 0,0 km/h
25.04.2013 11:00 25,6 C 39 % 1023,2 hPa 0,0 l/m 5,8 km/h N 10,6 C 25,6 C 3,2 km/h
25.04.2013 12:00 26,8 C 37 % 1022,5 hPa 0,0 l/m 0,0 km/h N 10,9 C 26,8 C 0,0 km/h
25.04.2013 13:00 27,3 C 36 % 1021,7 hPa 0,0 l/m 5,8 km/h NO 10,9 C 27,3 C 3,2 km/h
25.04.2013 14:00 27,2 C 32 % 1020,9 hPa 0,0 l/m 0,0 km/h N 9,1 C 27,2 C 0,0 km/h
25.04.2013 15:00 30,3 C 28 % 1019,8 hPa 0,0 l/m 4,5 km/h W-NW 9,7 C 30,3 C 2,5 km/h
25.04.2013 16:00 32,6 C 25 % 1018,9 hPa 0,0 l/m 0,0 km/h N-NW 10,0 C 32,6 C 0,0 km/h
25.04.2013 17:00 34,1 C 24 % 1018,3 hPa 0,0 l/m 11,7 km/h O-SO 10,6 C 34,1 C 6,5 km/h
25.04.2013 18:00 32,9 C 22 % 1017,6 hPa 0,0 l/m 0,0 km/h N 8,3 C 32,9 C 0,0 km/h
25.04.2013 19:00 29,3 C 27 % 1017,1 hPa 0,0 l/m 0,0 km/h SO 8,3 C 29,3 C 0,0 km/h
25.04.2013 20:00 20,6 C 45 % 1017,0 hPa 0,0 l/m 0,0 km/h S-SO 8,2 C 20,6 C 0,0 km/h
25.04.2013 21:00 16,1 C 54 % 1017,3 hPa 0,0 l/m 0,0 km/h SO 6,8 C 16,1 C 0,0 km/h
25.04.2013 22:00 14,2 C 63 % 1017,3 hPa 0,0 l/m 0,0 km/h S-SW 7,3 C 14,2 C 0,0 km/h
25.04.2013 23:00 13,2 C 67 % 1017,1 hPa 0,0 l/m 0,0 km/h SO 7,2 C 13,2 C 0,0 km/h
26.04.2013 00:00 12,5 C 69 % 1016,9 hPa 0,0 l/m 0,0 km/h O-SO 7,0 C 12,5 C 0,0 km/h
26.04.2013 01:00 11,9 C 71 % 1016,5 hPa 0,0 l/m 0,0 km/h S-SW 6,8 C 11,9 C 0,0 km/h
26.04.2013 02:00 10,4 C 75 % 1015,9 hPa 0,0 l/m 0,0 km/h SO 6,2 C 10,4 C 0,0 km/h
26.04.2013 03:00 10,1 C 78 % 1015,2 hPa 0,0 l/m 0,0 km/h S-SW 6,4 C 10,1 C 0,0 km/h
26.04.2013 04:00 9,6 C 78 % 1014,8 hPa 0,0 l/m 0,0 km/h O-SO 6,0 C 9,6 C 0,0 km/h
26.04.2013 05:00 9,8 C 79 % 1014,4 hPa 0,0 l/m 0,0 km/h S-SO 6,3 C 9,8 C 0,0 km/h
26.04.2013 06:00 11,2 C 76 % 1014,0 hPa 0,0 l/m 0,0 km/h S 7,1 C 11,2 C 0,0 km/h
26.04.2013 07:00 12,2 C 74 % 1013,3 hPa 0,0 l/m 0,0 km/h S-SW 7,7 C 12,2 C 0,0 km/h
26.04.2013 08:00 14,4 C 71 % 1012,9 hPa 0,0 l/m 0,0 km/h S-SW 9,2 C 14,4 C 0,0 km/h
26.04.2013 09:00 17,9 C 65 % 1012,2 hPa 0,0 l/m 0,0 km/h S-SW 11,2 C 17,9 C 0,0 km/h
26.04.2013 10:00 19,1 C 62 % 1011,7 hPa 0,0 l/m 0,0 km/h NW 11,6 C 19,1 C 0,0 km/h
26.04.2013 11:00 22,6 C 49 % 1011,1 hPa 0,0 l/m 17,5 km/h W 11,3 C 20,0 C 9,7 km/h
26.04.2013 12:00 22,6 C 50 % 1010,0 hPa 0,0 l/m 18,8 km/h N-NW 11,6 C 19,7 C 10,4 km/h
26.04.2013 13:00 22,1 C 51 % 1009,2 hPa 0,0 l/m 24,0 km/h W-NW 11,5 C 18,4 C 13,3 km/h
26.04.2013 14:00 22,9 C 51 % 1008,5 hPa 0,0 l/m 23,3 km/h N-NO 12,2 C 19,5 C 13,0 km/h
26.04.2013 15:00 21,1 C 56 % 1007,5 hPa 0,0 l/m 5,8 km/h O-NO 12,0 C 21,1 C 3,2 km/h
26.04.2013 16:00 18,3 C 69 % 1007,2 hPa 0,0 l/m 0,0 km/h NO 12,5 C 18,3 C 0,0 km/h
26.04.2013 17:00 16,6 C 74 % 1006,9 hPa 0,0 l/m 0,0 km/h O-NO 11,9 C 16,6 C 0,0 km/h
26.04.2013 18:00 14,8 C 81 % 1006,6 hPa 2,1 l/m 0,0 km/h SW 11,6 C 14,8 C 0,0 km/h
26.04.2013 19:00 14,2 C 82 % 1006,0 hPa 3,6 l/m 0,0 km/h W-SW 11,2 C 14,2 C 0,0 km/h
26.04.2013 20:00 13,9 C 82 % 1005,4 hPa 1,0 l/m 0,0 km/h W-SW 10,9 C 13,9 C 0,0 km/h
26.04.2013 21:00 14,8 C 83 % 1005,1 hPa 0,0 l/m 12,3 km/h O-NO 11,9 C 11,9 C 6,8 km/h
26.04.2013 22:00 13,7 C 83 % 1004,6 hPa 0,0 l/m 0,0 km/h O-SO 10,9 C 13,7 C 0,0 km/h
26.04.2013 23:00 13,3 C 83 % 1004,1 hPa 0,0 l/m 0,0 km/h W 10,5 C 13,3 C 0,0 km/h
27.04.2013 00:00 13,3 C 81 % 1003,1 hPa 3,1 l/m 0,6 km/h N-NO 10,1 C 13,3 C 0,4 km/h
27.04.2013 01:00 12,1 C 78 % 1003,4 hPa 3,6 l/m 0,0 km/h W 8,4 C 12,1 C 0,0 km/h
27.04.2013 02:00 11,9 C 78 % 1003,4 hPa 2,6 l/m 0,0 km/h SO 8,2 C 11,9 C 0,0 km/h
27.04.2013 03:00 11,8 C 78 % 1002,3 hPa 3,6 l/m 0,0 km/h W 8,1 C 11,8 C 0,0 km/h
27.04.2013 04:00 11,7 C 77 % 1001,9 hPa 1,0 l/m 0,0 km/h N 7,8 C 11,7 C 0,0 km/h
27.04.2013 05:00 11,6 C 76 % 1001,5 hPa 0,5 l/m 0,0 km/h O-SO 7,5 C 11,6 C 0,0 km/h
27.04.2013 06:00 9,9 C 77 % 1001,9 hPa 1,6 l/m 0,0 km/h O 6,1 C 9,9 C 0,0 km/h
27.04.2013 07:00 9,3 C 77 % 1002,7 hPa 1,6 l/m 0,0 km/h N 5,5 C 9,3 C 0,0 km/h
27.04.2013 08:00 8,4 C 78 % 1003,4 hPa 0,5 l/m 7,8 km/h O-SO 4,8 C 7,3 C 4,3 km/h
27.04.2013 09:00 8,4 C 80 % 1003,4 hPa 0,0 l/m 0,0 km/h O-SO 5,2 C 8,4 C 0,0 km/h
27.04.2013 10:00 8,5 C 82 % 1003,6 hPa 0,5 l/m 0,0 km/h O-SO 5,6 C 8,5 C 0,0 km/h
27.04.2013 11:00 8,9 C 84 % 1003,8 hPa 0,0 l/m 0,0 km/h O-SO 6,3 C 8,9 C 0,0 km/h
27.04.2013 12:00 8,8 C 84 % 1004,5 hPa 0,5 l/m 1,9 km/h O-SO 6,2 C 8,8 C 1,1 km/h
27.04.2013 13:00 8,9 C 84 % 1004,2 hPa 1,0 l/m 0,0 km/h O-SO 6,3 C 8,9 C 0,0 km/h
27.04.2013 14:00 8,8 C 84 % 1004,2 hPa 0,0 l/m 0,0 km/h O-SO 6,2 C 8,8 C 0,0 km/h
27.04.2013 15:00 9,3 C 82 % 1004,0 hPa 0,0 l/m 0,0 km/h O-SO 6,4 C 9,3 C 0,0 km/h
27.04.2013 16:00 9,2 C 80 % 1003,4 hPa 0,0 l/m 2,6 km/h O-SO 5,9 C 9,2 C 1,4 km/h
27.04.2013 17:00 7,8 C 83 % 1003,4 hPa 0,0 l/m 1,3 km/h O 5,1 C 7,8 C 0,7 km/h
27.04.2013 18:00 6,6 C 85 % 1003,9 hPa 0,0 l/m 1,9 km/h N-NO 4,3 C 6,6 C 1,1 km/h
27.04.2013 19:00 6,1 C 84 % 1004,5 hPa 0,0 l/m 1,3 km/h O-SO 3,6 C 6,1 C 0,7 km/h
27.04.2013 20:00 5,6 C 84 % 1005,4 hPa 1,0 l/m 0,0 km/h NO 3,1 C 5,6 C 0,0 km/h
27.04.2013 21:00 5,2 C 82 % 1007,2 hPa 1,0 l/m 0,0 km/h S-SO 2,4 C 5,2 C 0,0 km/h
27.04.2013 22:00 4,8 C 83 % 1007,3 hPa 2,6 l/m 0,0 km/h O-SO 2,2 C 4,8 C 0,0 km/h
27.04.2013 23:00 4,4 C 83 % 1007,8 hPa 1,6 l/m 0,0 km/h O-SO 1,8 C 4,4 C 0,0 km/h
28.04.2013 00:00 4,4 C 83 % 1007,7 hPa 0,5 l/m 0,0 km/h O-SO 1,8 C 4,4 C 0,0 km/h
28.04.2013 01:00 4,9 C 81 % 1008,7 hPa 0,0 l/m 0,0 km/h S-SW 1,9 C 4,9 C 0,0 km/h
28.04.2013 02:00 4,9 C 81 % 1008,7 hPa 0,0 l/m 0,0 km/h S-SW 1,9 C 4,9 C 0,0 km/h
28.04.2013 03:00 4,9 C 81 % 1009,2 hPa 0,0 l/m 0,0 km/h S 1,9 C 4,9 C 0,0 km/h
28.04.2013 04:00 4,9 C 80 % 1009,2 hPa 0,0 l/m 0,0 km/h S 1,7 C 4,9 C 0,0 km/h
28.04.2013 05:00 4,7 C 80 % 1009,4 hPa 0,0 l/m 0,0 km/h W-NW 1,6 C 4,7 C 0,0 km/h
28.04.2013 06:00 4,9 C 80 % 1009,9 hPa 0,0 l/m 0,0 km/h W-NW 1,7 C 4,9 C 0,0 km/h
28.04.2013 07:00 5,3 C 79 % 1010,9 hPa 0,0 l/m 0,0 km/h S-SW 2,0 C 5,3 C 0,0 km/h
28.04.2013 08:00 6,3 C 78 % 1011,6 hPa 0,0 l/m 0,0 km/h S-SW 2,8 C 6,3 C 0,0 km/h
28.04.2013 09:00 10,5 C 84 % 1011,8 hPa 0,0 l/m 0,0 km/h N 7,9 C 10,5 C 0,0 km/h
28.04.2013 10:00 13,3 C 70 % 1012,9 hPa 0,0 l/m 3,2 km/h N 7,9 C 13,3 C 1,8 km/h
28.04.2013 11:00 11,2 C 73 % 1013,4 hPa 0,0 l/m 1,9 km/h N 6,5 C 11,2 C 1,1 km/h
28.04.2013 12:00 13,8 C 66 % 1013,1 hPa 0,0 l/m 0,0 km/h O-SO 7,6 C 13,8 C 0,0 km/h
28.04.2013 13:00 14,7 C 61 % 1013,2 hPa 0,0 l/m 0,0 km/h N 7,3 C 14,7 C 0,0 km/h
28.04.2013 14:00 13,2 C 63 % 1012,9 hPa 0,0 l/m 3,2 km/h O 6,3 C 13,2 C 1,8 km/h
28.04.2013 15:00 11,4 C 70 % 1013,4 hPa 0,0 l/m 6,5 km/h O-SO 6,1 C 11,4 C 3,6 km/h
28.04.2013 16:00 11,4 C 73 % 1013,2 hPa 0,0 l/m 0,6 km/h O-SO 6,7 C 11,4 C 0,4 km/h
28.04.2013 17:00 11,1 C 74 % 1012,7 hPa 0,0 l/m 0,0 km/h O-SO 6,6 C 11,1 C 0,0 km/h
28.04.2013 18:00 10,3 C 76 % 1013,1 hPa 0,0 l/m 1,9 km/h N-NO 6,3 C 10,3 C 1,1 km/h
28.04.2013 19:00 9,9 C 78 % 1013,2 hPa 0,0 l/m 0,0 km/h O 6,2 C 9,9 C 0,0 km/h
28.04.2013 20:00 9,4 C 80 % 1013,3 hPa 0,0 l/m 1,3 km/h O-NO 6,1 C 9,4 C 0,7 km/h
28.04.2013 21:00 9,0 C 81 % 1013,7 hPa 0,0 l/m 0,0 km/h S-SW 5,9 C 9,0 C 0,0 km/h
28.04.2013 22:00 8,9 C 84 % 1014,2 hPa 0,0 l/m 0,0 km/h NO 6,3 C 8,9 C 0,0 km/h
28.04.2013 23:00 8,8 C 84 % 1014,4 hPa 0,0 l/m 0,0 km/h NO 6,2 C 8,8 C 0,0 km/h
Min-Datum _ 27.04.13 25.04.13 27.04.13 - 22.04.13 - 28.04.13 27.04.13 22.04.13
_ Min-Zeit 23:19 18:19 05:19 - 00:19 - 05:19 23:19 00:19
Minimum _ 4,4 C 22 % 1001,5 hPa - 0,0 km/h - 1,6 C 4,4 C 0,0 km/h
Max-Datum _ 25.04.13 27.04.13 24.04.13 26.04.13 23.04.13 - 26.04.13 25.04.13 23.04.13
_ Max-Zeit 17:19 18:19 10:19 19:19 15:19 - 16:19 17:19 15:19
Maximum _ 34,1 C 85 % 1025,2 hPa 3,6 l/m 25,9 km/h
S-SW
- 12,5 C 34,1 C 14,4 km/h
S-SW
Durchschnitt _ 13,6 C 68 % 1015,2 hPa #33,7 l/m 2,2 km/h S-SW 6,9 C 13,3 C 1,2 km/h
www.sexauwetter.de